Time;durP1;ratioP1;P1;durP2;ratioP2;P2;SDS_P1;SDS_P2;PMS_P1;PMS_P2;Temp;Humidity;BMP_temperature;BMP_pressure;BME280_temperature;BME280_humidity;BME280_pressure;Samples;Min_cycle;Max_cycle;Signal;HPM_P1;HPM_P2
2022/06/25 00:01:06;;;;;;;;;1.00;0.33;;;;;22.10;49.93;100519.75;5040175;28;45497;-72
2022/06/25 00:03:32;;;;;;;;;2.33;1.33;;;;;22.08;50.01;100516.44;5039415;28;46897;-71
2022/06/25 00:05:57;;;;;;;;;3.00;2.00;;;;;21.95;50.29;100516.53;5039716;28;45316;-72
2022/06/25 00:08:23;;;;;;;;;1.67;1.67;;;;;21.49;50.39;100441.25;5040064;28;45437;-72
2022/06/25 00:10:49;;;;;;;;;3.00;2.00;;;;;21.53;50.57;100447.88;5039806;28;45237;-70
2022/06/25 00:13:14;;;;;;;;;1.33;1.33;;;;;21.91;50.48;100499.09;5039471;28;46494;-71
2022/06/25 00:15:40;;;;;;;;;4.33;2.00;;;;;21.61;51.67;100457.56;5039435;28;45201;-71
2022/06/25 00:18:05;;;;;;;;;2.00;2.00;;;;;21.88;51.92;100504.97;5039660;28;45234;-70
2022/06/25 00:20:31;;;;;;;;;3.00;2.67;;;;;21.89;52.32;100512.03;5039979;28;45509;-71
2022/06/25 00:22:56;;;;;;;;;3.00;2.00;;;;;21.19;52.84;100398.63;5039402;28;46001;-71
2022/06/25 00:25:21;;;;;;;;;3.00;3.00;;;;;21.72;52.86;100492.84;5038211;28;45713;-70
2022/06/25 00:27:47;;;;;;;;;2.00;2.00;;;;;21.69;52.83;100484.34;5039527;28;45303;-73
2022/06/25 00:30:12;;;;;;;;;1.00;1.00;;;;;21.63;53.08;100474.41;5039773;28;45266;-73
2022/06/25 00:32:38;;;;;;;;;2.00;2.00;;;;;21.59;52.98;100478.59;5039262;28;46454;-70
2022/06/25 00:35:04;;;;;;;;;4.00;2.33;;;;;21.77;53.59;100513.81;5039103;28;45427;-70
2022/06/25 00:37:30;;;;;;;;;2.67;2.67;;;;;20.54;53.65;100302.75;5038646;28;45420;-72
2022/06/25 00:39:56;;;;;;;;;1.00;1.00;;;;;21.66;54.10;100493.75;5040174;28;45488;-71
2022/06/25 00:42:22;;;;;;;;;3.00;2.00;;;;;21.65;54.38;100492.09;5039154;28;45534;-71
2022/06/25 00:44:47;;;;;;;;;2.33;2.33;;;;;21.66;54.15;100491.03;5038852;28;45494;-72
2022/06/25 00:47:14;;;;;;;;;3.00;3.00;;;;;21.58;54.25;100482.34;5039547;28;45400;-71
2022/06/25 00:49:41;;;;;;;;;2.00;2.00;;;;;21.32;54.21;100440.97;5039726;28;45304;-70
2022/06/25 00:52:18;;;;;;;;;4.33;3.00;;;;;21.82;53.50;100528.34;5038917;28;45792;-72
2022/06/25 00:54:54;;;;;;;;;1.67;1.67;;;;;21.80;53.59;100516.06;5037821;28;45339;-71
2022/06/25 00:57:24;;;;;;;;;3.33;3.33;;;;;21.80;53.61;100518.78;5039501;28;45265;-71
2022/06/25 00:59:51;;;;;;;;;3.00;2.67;;;;;21.47;53.68;100463.13;5038608;28;45451;-71
2022/06/25 01:02:17;;;;;;;;;3.00;3.00;;;;;21.33;53.29;100448.03;5039997;28;47660;-71
2022/06/25 01:04:42;;;;;;;;;3.00;3.00;;;;;21.39;53.57;100449.84;5039053;28;45316;-70
2022/06/25 01:07:08;;;;;;;;;2.00;2.00;;;;;20.61;53.29;100325.94;5037603;28;45374;-70
2022/06/25 01:09:36;;;;;;;;;3.00;3.00;;;;;21.72;53.24;100516.38;5039073;28;45467;-70
2022/06/25 01:12:02;;;;;;;;;2.00;2.00;;;;;21.75;52.87;100515.91;5039108;28;46499;-71
2022/06/25 01:14:27;;;;;;;;;2.00;2.00;;;;;21.55;53.21;100489.88;5054081;28;46508;-72
2022/06/25 01:16:52;;;;;;;;;3.33;2.33;;;;;21.62;53.21;100507.91;5038912;28;45487;-71
2022/06/25 01:19:18;;;;;;;;;4.33;3.33;;;;;21.46;52.97;100482.28;5039104;28;45562;-71
2022/06/25 01:21:44;;;;;;;;;3.00;2.00;;;;;21.55;53.07;100499.88;5038634;28;46342;-70
2022/06/25 01:24:10;;;;;;;;;2.00;2.00;;;;;21.43;53.31;100485.44;5038614;28;45253;-71
2022/06/25 01:26:37;;;;;;;;;4.00;2.33;;;;;21.26;53.55;100468.91;5038837;28;45333;-71
2022/06/25 01:29:03;;;;;;;;;3.00;3.00;;;;;20.93;53.31;100426.72;5039246;28;45285;-72
2022/06/25 01:31:29;;;;;;;;;1.67;1.67;;;;;21.18;53.73;100472.66;5038559;28;47097;-70
2022/06/25 01:33:55;;;;;;;;;5.33;2.67;;;;;21.55;53.36;100516.91;5038502;28;45292;-69
2022/06/25 01:36:20;;;;;;;;;2.00;2.00;;;;;21.51;53.46;100526.53;5038508;28;45327;-70
2022/06/25 01:38:45;;;;;;;;;2.33;2.33;;;;;21.26;53.25;100493.25;5037413;28;45198;-73
2022/06/25 01:41:11;;;;;;;;;3.00;1.33;;;;;21.44;53.74;100517.66;5038351;28;45534;-70
2022/06/25 01:43:36;;;;;;;;;1.00;1.00;;;;;21.31;53.44;100506.09;5038524;28;45256;-71
2022/06/25 01:46:02;;;;;;;;;3.00;2.00;;;;;21.27;53.84;100499.50;5038301;28;45257;-71
2022/06/25 01:48:27;;;;;;;;;2.00;2.00;;;;;21.17;53.92;100484.53;5038378;28;45406;-72
2022/06/25 01:50:53;;;;;;;;;2.67;1.00;;;;;20.69;53.87;100405.91;5038150;28;45699;-71
2022/06/25 01:53:18;;;;;;;;;2.00;2.00;;;;;21.23;53.79;100482.84;5038005;28;45407;-72
2022/06/25 01:55:43;;;;;;;;;3.00;3.00;;;;;21.36;53.78;100523.31;5038090;28;45400;-70
2022/06/25 01:58:10;;;;;;;;;1.67;1.67;;;;;21.40;54.13;100526.41;5038318;28;45549;-71
2022/06/25 02:00:35;;;;;;;;;2.00;1.00;;;;;20.99;53.97;100472.81;5036496;28;47593;-72
2022/06/25 02:03:01;;;;;;;;;2.00;2.00;;;;;20.83;54.04;100437.19;5053475;28;45320;-71
2022/06/25 02:08:14;;;;;;;;;3.00;2.00;;;;;21.44;53.77;100525.78;5039010;28;45308;-71
2022/06/25 02:10:41;;;;;;;;;2.00;2.00;;;;;21.42;54.14;100538.66;5036646;28;47888;-71
2022/06/25 02:13:06;;;;;;;;;1.67;1.67;;;;;21.15;54.54;100494.75;5037791;28;45479;-71
2022/06/25 02:15:32;;;;;;;;;1.33;1.00;;;;;21.01;55.15;100490.47;5037932;28;45261;-71
2022/06/25 02:17:59;;;;;;;;;1.00;1.00;;;;;20.45;55.36;100393.19;5038192;28;45443;-71
2022/06/25 02:20:25;;;;;;;;;1.33;1.33;;;;;20.62;55.64;100434.81;5037767;28;46599;-71
2022/06/25 02:22:50;;;;;;;;;1.00;1.00;;;;;21.00;55.35;100490.69;5037760;28;45375;-71
2022/06/25 02:25:16;;;;;;;;;3.00;1.00;;;;;21.26;55.37;100539.22;5038293;28;45519;-69
2022/06/25 02:27:42;;;;;;;;;3.00;2.00;;;;;21.16;55.73;100517.19;5039334;28;45415;-71
2022/06/25 02:30:08;;;;;;;;;1.33;1.33;;;;;21.24;55.58;100527.78;5037906;28;45662;-71
2022/06/25 02:32:33;;;;;;;;;3.67;3.67;;;;;21.09;55.84;100492.09;5037669;28;45446;-70
2022/06/25 02:34:59;;;;;;;;;0.00;0.00;;;;;21.20;55.67;100524.66;5037582;28;45399;-71
2022/06/25 02:37:24;;;;;;;;;1.00;1.00;;;;;21.21;55.46;100514.66;5037905;28;45522;-71
2022/06/25 02:39:49;;;;;;;;;2.00;2.00;;;;;21.16;55.55;100484.75;5036239;28;48362;-70
2022/06/25 02:42:15;;;;;;;;;1.00;1.00;;;;;21.35;55.55;100523.53;5037426;28;45316;-71
2022/06/25 02:44:40;;;;;;;;;1.50;1.50;;;;;21.40;55.14;100527.22;5037262;28;45469;-70
2022/06/25 02:47:05;;;;;;;;;2.00;2.00;;;;;21.05;55.48;100461.16;5037748;28;45372;-70
2022/06/25 02:49:31;;;;;;;;;1.00;1.00;;;;;20.91;55.69;100469.34;5037320;28;45723;-71
2022/06/25 02:51:56;;;;;;;;;1.33;1.00;;;;;21.15;55.22;100504.72;5037328;28;45264;-70
2022/06/25 02:54:23;;;;;;;;;0.00;0.00;;;;;21.40;55.62;100531.81;5037414;28;45521;-70
2022/06/25 02:59:32;;;;;;;;;1.00;1.00;;;;;21.34;56.25;100540.81;5036984;28;45182;-70
2022/06/25 03:01:58;;;;;;;;;1.00;1.00;;;;;21.29;56.79;100541.47;5036291;28;45423;-71
2022/06/25 03:04:24;;;;;;;;;1.00;1.00;;;;;21.24;58.06;100535.91;5037314;28;45188;-70
2022/06/25 03:06:50;;;;;;;;;3.00;2.00;;;;;21.28;58.87;100569.56;5037324;28;45261;-71
2022/06/25 03:09:16;;;;;;;;;0.33;0.33;;;;;21.24;58.77;100557.53;5036909;28;47045;-71
2022/06/25 03:11:42;;;;;;;;;0.00;0.00;;;;;20.85;58.55;100491.00;5037041;28;45415;-71
2022/06/25 03:14:07;;;;;;;;;0.00;0.00;;;;;21.24;58.29;100557.53;5037104;28;45482;-72
2022/06/25 03:16:32;;;;;;;;;2.00;0.00;;;;;20.51;58.16;100440.91;5037154;28;45488;-71
2022/06/25 03:18:58;;;;;;;;;2.67;0.00;;;;;21.14;58.03;100563.38;5036896;28;45677;-70
2022/06/25 03:21:23;;;;;;;;;0.00;0.00;;;;;21.04;58.69;100560.34;5035827;28;45501;-71
2022/06/25 03:23:49;;;;;;;;;0.00;0.00;;;;;20.91;58.31;100536.91;5037184;28;45447;-71
2022/06/25 03:26:14;;;;;;;;;0.00;0.00;;;;;20.62;58.17;100489.69;5035908;28;45478;-72
2022/06/25 03:28:40;;;;;;;;;0.00;0.00;;;;;21.00;58.11;100545.56;5036768;28;46230;-71
2022/06/25 03:31:05;;;;;;;;;0.00;0.00;;;;;21.00;58.15;100539.34;5036755;28;45321;-70
2022/06/25 03:33:31;;;;;;;;;0.00;0.00;;;;;20.45;57.88;100450.72;5037000;28;45162;-70
2022/06/25 03:35:56;;;;;;;;;0.00;0.00;;;;;21.00;57.90;100550.16;5037083;28;45190;-71
2022/06/25 03:38:22;;;;;;;;;0.33;0.33;;;;;20.73;57.59;100517.88;5052037;28;48064;-71
2022/06/25 03:40:47;;;;;;;;;0.33;0.33;;;;;20.80;57.81;100537.56;5036717;28;45225;-71
2022/06/25 03:43:13;;;;;;;;;0.00;0.00;;;;;20.75;57.78;100537.41;5036911;28;45525;-70
2022/06/25 03:45:38;;;;;;;;;0.00;0.00;;;;;20.39;57.68;100493.91;5036681;28;45457;-71
2022/06/25 03:48:04;;;;;;;;;0.00;0.00;;;;;20.43;57.84;100487.09;5036511;28;47470;-72
2022/06/25 03:50:30;;;;;;;;;0.00;0.00;;;;;20.92;58.17;100571.00;5036700;28;45517;-72
2022/06/25 03:52:55;;;;;;;;;3.00;1.67;;;;;20.79;58.38;100554.84;5035495;28;45404;-72
2022/06/25 03:55:21;;;;;;;;;1.00;0.00;;;;;20.96;58.32;100572.22;5035334;28;45568;-71
2022/06/25 03:57:46;;;;;;;;;0.00;0.00;;;;;20.94;58.55;100576.19;5036294;28;45667;-71
2022/06/25 04:00:14;;;;;;;;;0.33;0.33;;;;;20.93;58.78;100578.06;5034757;28;45304;-71
2022/06/25 04:02:40;;;;;;;;;1.25;0.00;;;;;20.97;58.40;100583.84;5036514;28;45537;-71
2022/06/25 04:05:06;;;;;;;;;0.00;0.00;;;;;20.91;58.94;100573.91;5051922;28;45578;-71
2022/06/25 04:07:32;;;;;;;;;0.00;0.00;;;;;20.89;58.95;100576.84;5036128;28;45606;-70
2022/06/25 04:09:57;;;;;;;;;1.00;0.00;;;;;20.93;59.16;100588.03;5036519;28;45273;-70
2022/06/25 04:12:22;;;;;;;;;0.33;0.33;;;;;20.62;58.64;100529.34;5037977;28;45301;-70
2022/06/25 04:14:48;;;;;;;;;0.00;0.00;;;;;20.90;59.17;100575.78;5038484;28;45402;-70
2022/06/25 04:17:13;;;;;;;;;0.00;0.00;;;;;20.72;59.25;100547.81;5039488;28;45703;-70
2022/06/25 04:19:42;;;;;;;;;0.67;0.67;;;;;20.91;59.44;100580.16;5038491;28;46464;-70
2022/06/25 04:22:10;;;;;;;;;0.00;0.00;;;;;19.97;59.30;100413.31;5038358;28;45394;-72
2022/06/25 04:24:37;;;;;;;;;0.33;0.00;;;;;20.97;59.35;100573.03;5040131;28;45625;-72
2022/06/25 04:27:03;;;;;;;;;1.00;1.00;;;;;20.66;59.23;100533.31;5039248;28;46967;-70
2022/06/25 04:29:29;;;;;;;;;1.00;1.00;;;;;20.98;59.18;100590.91;5055105;28;45266;-71
2022/06/25 04:31:55;;;;;;;;;2.00;2.00;;;;;20.94;59.32;100582.41;5038129;28;45520;-70
2022/06/25 04:34:20;;;;;;;;;2.33;1.00;;;;;20.96;59.24;100582.19;5039685;28;45402;-71
2022/06/25 04:36:46;;;;;;;;;1.00;1.00;;;;;20.86;59.39;100577.28;5037485;28;48506;-70
2022/06/25 04:39:11;;;;;;;;;0.00;0.00;;;;;21.02;59.02;100594.84;5039288;28;45469;-69
2022/06/25 04:41:37;;;;;;;;;0.00;0.00;;;;;21.03;58.92;100582.19;5039191;28;45304;-72
2022/06/25 04:44:02;;;;;;;;;1.00;1.00;;;;;21.08;58.87;100591.28;5038139;28;45538;-70
2022/06/25 04:46:31;;;;;;;;;0.00;0.00;;;;;21.10;58.74;100591.91;5039078;28;45722;-70
2022/06/25 04:48:57;;;;;;;;;2.00;2.00;;;;;21.15;58.60;100600.19;5038998;28;45334;-71
2022/06/25 04:51:22;;;;;;;;;1.00;1.00;;;;;21.12;58.21;100584.41;5037831;28;45500;-70
2022/06/25 04:53:56;;;;;;;;;1.33;1.33;;;;;21.24;57.94;100598.09;5039442;28;45501;-71
2022/06/25 04:56:29;;;;;;;;;1.00;1.00;;;;;20.95;57.97;100551.63;5038977;28;46063;-72
2022/06/25 04:58:55;;;;;;;;;1.67;1.00;;;;;21.25;57.79;100599.75;5053941;28;45782;-71
2022/06/25 05:01:21;;;;;;;;;1.67;1.00;;;;;21.29;57.68;100600.97;5038724;28;45336;-70
2022/06/25 05:03:47;;;;;;;;;0.67;0.67;;;;;20.94;57.84;100559.97;5037774;28;46569;-70
2022/06/25 05:06:14;;;;;;;;;0.00;0.00;;;;;21.25;57.78;100608.69;5054318;28;47468;-73
2022/06/25 05:08:40;;;;;;;;;0.00;0.00;;;;;21.30;57.72;100615.31;5038714;28;45289;-71
2022/06/25 05:11:06;;;;;;;;;0.00;0.00;;;;;21.33;57.32;100615.72;5038779;28;45260;-71
2022/06/25 05:13:31;;;;;;;;;0.75;0.75;;;;;20.81;57.03;100517.63;5038763;28;45502;-70
2022/06/25 05:15:57;;;;;;;;;2.00;1.00;;;;;21.29;56.96;100592.03;5038820;28;45841;-71
2022/06/25 05:18:22;;;;;;;;;0.00;0.00;;;;;21.31;56.72;100607.00;5038691;28;45410;-71
2022/06/25 05:20:48;;;;;;;;;0.00;0.00;;;;;21.53;56.75;100632.63;5038631;28;45492;-70
2022/06/25 05:23:13;;;;;;;;;1.00;1.00;;;;;21.31;56.38;100592.63;5037235;28;45562;-70
2022/06/25 05:25:40;;;;;;;;;1.00;1.00;;;;;21.50;56.29;100632.25;5036045;28;47455;-71
2022/06/25 05:28:06;;;;;;;;;2.00;0.67;;;;;21.61;56.21;100638.81;5037925;28;45250;-70
2022/06/25 05:30:32;;;;;;;;;1.00;1.00;;;;;20.90;56.23;100515.50;5038190;28;45530;-70
2022/06/25 05:32:58;;;;;;;;;1.00;1.00;;;;;21.54;55.83;100607.25;5038713;28;45485;-71
2022/06/25 05:35:24;;;;;;;;;1.00;1.00;;;;;21.66;55.57;100626.31;5038031;28;47597;-71
2022/06/25 05:37:50;;;;;;;;;1.33;1.33;;;;;21.37;55.50;100581.75;5038262;28;45491;-71
2022/06/25 05:40:15;;;;;;;;;1.00;0.00;;;;;21.78;55.70;100635.38;5053718;28;45259;-70
2022/06/25 05:42:41;;;;;;;;;3.33;1.00;;;;;21.71;55.37;100612.13;5053731;28;45434;-70
2022/06/25 05:45:07;;;;;;;;;1.75;1.75;;;;;21.97;55.17;100638.97;5037936;28;45931;-71
2022/06/25 05:47:32;;;;;;;;;1.67;1.67;;;;;21.27;54.65;100513.84;5038156;28;45308;-71
2022/06/25 05:49:58;;;;;;;;;1.00;1.00;;;;;22.11;54.69;100639.72;5038305;28;48241;-71
2022/06/25 05:52:23;;;;;;;;;1.00;1.00;;;;;21.94;53.71;100597.97;5036904;28;45582;-71
2022/06/25 05:54:49;;;;;;;;;0.25;0.25;;;;;22.19;53.47;100630.47;5038174;28;45705;-70
2022/06/25 05:57:14;;;;;;;;;6.67;6.67;;;;;21.82;53.99;100579.78;5037883;28;45513;-70
2022/06/25 05:59:40;;;;;;;;;3.00;3.00;;;;;22.27;53.47;100630.19;5038347;28;45365;-70
2022/06/25 06:02:06;;;;;;;;;1.00;1.00;;;;;22.30;52.78;100627.03;5037012;28;45612;-70
2022/06/25 06:04:32;;;;;;;;;0.00;0.00;;;;;21.92;52.21;100549.47;5036738;28;45589;-71
2022/06/25 06:06:59;;;;;;;;;0.00;0.00;;;;;22.52;52.31;100633.69;5037840;28;45261;-71
2022/06/25 06:09:27;;;;;;;;;0.00;0.00;;;;;22.13;51.56;100562.63;5037891;28;45514;-70
2022/06/25 06:11:53;;;;;;;;;1.00;1.00;;;;;22.59;50.93;100639.00;5036564;28;45427;-71
2022/06/25 06:14:18;;;;;;;;;1.33;1.00;;;;;22.54;50.58;100641.56;5037459;28;45312;-70
2022/06/25 06:16:43;;;;;;;;;3.67;3.00;;;;;22.47;51.19;100628.13;5037482;28;46608;-71
2022/06/25 06:19:09;;;;;;;;;1.00;1.00;;;;;22.57;50.72;100643.84;5037501;28;45308;-70
2022/06/25 06:21:34;;;;;;;;;0.67;0.33;;;;;22.28;51.05;100602.06;5038062;28;45510;-69
2022/06/25 06:24:00;;;;;;;;;1.00;0.00;;;;;22.57;51.28;100639.25;5052761;28;45540;-71
2022/06/25 06:26:25;;;;;;;;;2.33;2.00;;;;;22.60;51.37;100648.78;5035981;28;45505;-71
2022/06/25 06:28:51;;;;;;;;;3.00;1.00;;;;;22.59;51.40;100653.38;5036413;28;45803;-70
2022/06/25 06:31:16;;;;;;;;;1.00;1.00;;;;;22.32;51.20;100614.91;5036367;28;45506;-72
2022/06/25 06:33:42;;;;;;;;;1.00;1.00;;;;;22.37;51.41;100633.22;5037416;28;45842;-72
2022/06/25 06:36:07;;;;;;;;;2.67;1.67;;;;;22.42;52.14;100641.47;5036191;28;45409;-71
2022/06/25 06:38:32;;;;;;;;;1.00;1.00;;;;;22.27;52.79;100628.31;5037528;28;45260;-72
2022/06/25 06:40:58;;;;;;;;;1.00;1.00;;;;;22.42;52.76;100652.31;5037708;28;45502;-70
2022/06/25 06:43:23;;;;;;;;;2.00;2.00;;;;;22.56;53.62;100661.16;5052432;28;48530;-72
2022/06/25 06:45:48;;;;;;;;;2.00;2.00;;;;;22.61;52.34;100655.88;5037197;28;45367;-72
2022/06/25 06:48:14;;;;;;;;;1.67;1.67;;;;;22.62;52.54;100639.38;5037737;28;45991;-71
2022/06/25 06:50:39;;;;;;;;;1.00;1.00;;;;;22.68;52.36;100634.97;5037443;28;45294;-70
2022/06/25 06:53:05;;;;;;;;;1.00;1.00;;;;;22.69;52.73;100648.28;5036909;28;46716;-71
2022/06/25 06:55:30;;;;;;;;;3.00;2.00;;;;;22.76;52.90;100650.91;5035547;28;46255;-72
2022/06/25 06:57:55;;;;;;;;;1.00;1.00;;;;;22.60;52.77;100611.69;5037369;28;45461;-70
2022/06/25 07:00:21;;;;;;;;;0.67;0.67;;;;;22.89;52.20;100658.94;5037323;28;45401;-74
2022/06/25 07:02:46;;;;;;;;;1.00;1.00;;;;;22.61;51.12;100609.81;5036815;28;45777;-70
2022/06/25 07:05:12;;;;;;;;;1.00;1.00;;;;;22.99;50.97;100652.97;5036810;28;45390;-71
2022/06/25 07:07:37;;;;;;;;;1.00;1.00;;;;;22.62;48.97;100587.91;5036901;28;45533;-72
2022/06/25 07:10:03;;;;;;;;;0.00;0.00;;;;;22.81;47.78;100606.84;5037204;28;45389;-70
2022/06/25 07:12:29;;;;;;;;;2.00;2.00;;;;;22.83;47.64;100619.19;5036688;28;45469;-72
2022/06/25 07:14:54;;;;;;;;;0.00;0.00;;;;;23.03;47.56;100668.56;5035400;28;45411;-71
2022/06/25 07:17:19;;;;;;;;;1.00;1.00;;;;;22.99;48.27;100644.81;5036837;28;45364;-69
2022/06/25 07:19:45;;;;;;;;;1.00;1.00;;;;;22.29;48.28;100526.00;5037353;28;45503;-72
2022/06/25 07:22:10;;;;;;;;;1.67;0.00;;;;;23.02;47.50;100628.09;5036806;28;45899;-70
2022/06/25 07:24:35;;;;;;;;;1.00;1.00;;;;;23.29;47.09;100664.69;5036726;28;45522;-71
2022/06/25 07:27:01;;;;;;;;;1.00;1.00;;;;;23.36;47.39;100659.97;5036737;28;45400;-72
2022/06/25 07:29:26;;;;;;;;;1.67;1.67;;;;;22.42;45.65;100487.91;5052254;28;45268;-73
2022/06/25 07:31:52;;;;;;;;;1.67;1.33;;;;;23.51;45.94;100646.00;5036374;28;45498;-70
2022/06/25 07:34:17;;;;;;;;;1.00;1.00;;;;;23.74;45.19;100669.69;5036510;28;45364;-70
2022/06/25 07:36:43;;;;;;;;;1.00;1.00;;;;;23.68;44.92;100657.06;5036705;28;45168;-73
2022/06/25 07:39:08;;;;;;;;;1.00;1.00;;;;;23.62;43.28;100639.78;5036805;28;45585;-71
2022/06/25 07:41:34;;;;;;;;;1.25;0.00;;;;;23.21;42.73;100564.63;5036386;28;46520;-72
2022/06/25 07:43:59;;;;;;;;;1.00;1.00;;;;;23.84;42.88;100661.81;5035198;28;46235;-70
2022/06/25 07:46:25;;;;;;;;;0.50;0.50;;;;;24.07;43.50;100666.44;5036524;28;45229;-72
2022/06/25 07:48:51;;;;;;;;;1.67;1.00;;;;;24.06;42.85;100620.53;5038451;28;45313;-71
2022/06/25 07:54:00;;;;;;;;;0.67;0.67;;;;;24.52;41.64;100636.00;5039812;28;45363;-72
2022/06/25 07:56:26;;;;;;;;;0.00;0.00;;;;;24.20;41.87;100578.44;5040147;28;45569;-72
2022/06/25 07:58:51;;;;;;;;;1.00;1.00;;;;;24.85;41.86;100689.75;5026984;28;45446;-70
2022/06/25 08:01:17;;;;;;;;;1.67;1.67;;;;;24.88;43.13;100686.53;5019364;28;45353;-73
2022/06/25 08:03:43;;;;;;;;;2.67;2.00;;;;;24.79;42.21;100652.59;5025343;28;45375;-72
2022/06/25 08:06:08;;;;;;;;;1.67;1.67;;;;;24.85;42.33;100690.56;5032927;28;45289;-70
2022/06/25 08:08:34;;;;;;;;;4.00;4.00;;;;;24.17;42.17;100573.50;5020636;28;45493;-71
2022/06/25 08:10:59;;;;;;;;;1.00;1.00;;;;;23.89;42.87;100555.22;5019879;28;46300;-71
2022/06/25 08:13:26;;;;;;;;;1.33;1.33;;;;;24.30;43.02;100619.47;5034471;28;45822;-70
2022/06/25 08:15:52;;;;;;;;;1.00;1.00;;;;;24.27;42.71;100604.44;5019472;28;45310;-70
2022/06/25 08:18:21;;;;;;;;;0.00;0.00;;;;;24.82;42.32;100690.19;5023630;28;45407;-71
2022/06/25 08:20:46;;;;;;;;;1.00;1.00;;;;;24.64;42.72;100657.75;5022043;28;45626;-71
2022/06/25 08:23:12;;;;;;;;;0.00;0.00;;;;;23.08;42.79;100390.47;5024485;28;45475;-72
2022/06/25 08:25:38;;;;;;;;;3.00;2.00;;;;;24.88;42.70;100694.69;5017721;28;45542;-73
2022/06/25 08:28:03;;;;;;;;;0.67;0.67;;;;;24.81;42.57;100686.66;5033380;28;45488;-75
2022/06/25 08:30:29;;;;;;;;;4.00;3.00;;;;;24.19;42.16;100596.63;5033985;28;47801;-76
2022/06/25 08:32:55;;;;;;;;;1.00;0.00;;;;;24.58;43.11;100684.78;5018017;28;45792;-76
2022/06/25 08:35:22;;;;;;;;;1.00;1.00;;;;;24.64;43.43;100715.66;5019377;28;45395;-74
2022/06/25 08:37:50;;;;;;;;;2.33;2.33;;;;;24.07;43.05;100627.59;5019262;28;45527;-75
2022/06/25 08:40:21;;;;;;;;;1.33;1.33;;;;;24.27;42.20;100676.97;5024059;28;45586;-75
2022/06/25 08:42:48;;;;;;;;;2.00;1.00;;;;;23.77;43.13;100606.78;5042686;28;45477;-74
2022/06/25 08:45:15;;;;;;;;;1.67;1.67;;;;;24.40;41.86;100716.69;5054224;28;45391;-76
2022/06/25 08:47:46;;;;;;;;;1.75;1.25;;;;;24.20;42.69;100708.84;5037759;28;45265;-73
2022/06/25 08:50:16;;;;;;;;;1.33;1.00;;;;;24.19;42.11;100726.22;5021281;28;47053;-73
2022/06/25 08:52:45;;;;;;;;;3.50;2.25;;;;;24.02;42.19;100711.66;5029051;28;45395;-73
2022/06/25 08:55:20;;;;;;;;;0.00;0.00;;;;;23.94;43.11;100720.97;5020642;28;45335;-73
2022/06/25 08:57:46;;;;;;;;;1.00;1.00;;;;;23.62;42.63;100685.09;5019204;28;45371;-74
2022/06/25 09:00:12;;;;;;;;;2.33;2.00;;;;;22.96;43.17;100608.16;5032690;28;45827;-73
2022/06/25 09:02:39;;;;;;;;;1.67;1.67;;;;;22.85;42.86;100597.28;5033584;28;45481;-74
2022/06/25 09:05:08;;;;;;;;;1.67;1.67;;;;;23.50;43.37;100708.66;5025266;28;45460;-74
2022/06/25 09:07:33;;;;;;;;;3.33;1.67;;;;;23.48;43.37;100711.59;5053780;28;45521;-74
2022/06/25 09:09:59;;;;;;;;;1.00;1.00;;;;;23.34;44.18;100721.78;5036588;28;45430;-73
2022/06/25 09:12:24;;;;;;;;;1.00;1.00;;;;;23.41;45.41;100724.41;5023716;28;45436;-72
2022/06/25 09:14:50;;;;;;;;;1.33;0.33;;;;;22.52;44.90;100587.63;5029016;28;45528;-74
2022/06/25 09:17:16;;;;;;;;;0.33;0.33;;;;;23.13;45.00;100697.84;5037593;28;45635;-71
2022/06/25 09:19:47;;;;;;;;;5.00;4.67;;;;;23.04;45.34;100682.94;5024624;28;45560;-73
2022/06/25 09:22:22;;;;;;;;;2.00;2.00;;;;;22.51;46.00;100602.22;5030264;28;45350;-72
2022/06/25 09:24:53;;;;;;;;;3.00;2.00;;;;;23.14;46.10;100698.66;5018628;28;45514;-73
2022/06/25 09:27:20;;;;;;;;;14.33;12.33;;;;;22.94;46.40;100663.66;5018642;28;45448;-72
2022/06/25 09:29:51;;;;;;;;;3.00;2.00;;;;;23.25;46.17;100709.59;5034538;28;47670;-72
2022/06/25 09:32:18;;;;;;;;;1.00;1.00;;;;;23.13;45.02;100692.44;5022610;28;45414;-72
2022/06/25 09:34:44;;;;;;;;;4.33;4.33;;;;;23.24;45.77;100709.81;5019337;28;45254;-71
2022/06/25 09:37:18;;;;;;;;;1.00;1.00;;;;;22.32;45.15;100573.47;5018499;28;45549;-74
2022/06/25 09:39:47;;;;;;;;;3.33;3.33;;;;;22.94;45.06;100677.22;5017879;28;45670;-73
2022/06/25 09:42:20;;;;;;;;;2.00;2.00;;;;;23.13;44.95;100703.28;5023616;28;45343;-73
2022/06/25 09:44:47;;;;;;;;;2.33;1.33;;;;;23.17;45.00;100703.63;5017285;28;46101;-74
2022/06/25 09:47:16;;;;;;;;;2.00;2.00;;;;;22.86;44.58;100658.56;5018328;28;45414;-72
2022/06/25 09:49:41;;;;;;;;;1.00;1.00;;;;;22.75;44.78;100663.63;5014876;28;46166;-71
2022/06/25 09:52:07;;;;;;;;;4.00;2.00;;;;;22.58;44.95;100635.47;5018081;28;45277;-72
2022/06/25 09:54:35;;;;;;;;;2.00;2.00;;;;;23.05;44.33;100706.31;5017214;28;45537;-73
2022/06/25 09:57:01;;;;;;;;;2.00;1.00;;;;;22.81;45.03;100671.91;5018412;28;45389;-72
2022/06/25 09:59:30;;;;;;;;;2.33;1.00;;;;;22.98;44.97;100700.94;5016825;28;47644;-72
2022/06/25 10:01:59;;;;;;;;;4.00;2.67;;;;;22.94;45.17;100669.09;5000214;28;45618;-72
2022/06/25 10:04:28;;;;;;;;;3.00;3.00;;;;;22.69;45.00;100640.16;5022405;28;45555;-74
2022/06/25 10:06:55;;;;;;;;;2.00;2.00;;;;;23.17;45.25;100709.06;5017390;28;45345;-73
2022/06/25 10:09:25;;;;;;;;;4.33;4.33;;;;;23.22;45.62;100711.91;5017318;28;46263;-69
2022/06/25 10:11:51;;;;;;;;;1.67;1.67;;;;;22.11;45.53;100505.16;5014763;28;45356;-73
2022/06/25 10:14:17;;;;;;;;;1.00;1.00;;;;;22.90;45.04;100633.47;5041659;28;45531;-73
2022/06/25 10:16:44;;;;;;;;;4.33;2.67;;;;;22.87;44.42;100620.38;5014613;28;45665;-74
2022/06/25 10:19:14;;;;;;;;;1.33;1.33;;;;;23.30;44.89;100704.31;5017508;28;45639;-71
2022/06/25 10:21:43;;;;;;;;;2.00;2.00;;;;;22.94;45.02;100644.69;5035856;28;45480;-73
2022/06/25 10:24:09;;;;;;;;;3.00;2.25;;;;;22.86;45.09;100616.03;5016362;28;45621;-72
2022/06/25 10:26:36;;;;;;;;;1.25;1.25;;;;;22.75;44.93;100604.00;5016343;28;45539;-74
2022/06/25 10:29:03;;;;;;;;;3.00;2.00;;;;;22.94;45.36;100636.56;5017039;28;45695;-74
2022/06/25 10:31:30;;;;;;;;;3.00;3.00;;;;;22.82;46.04;100619.38;5015768;28;45710;-73
2022/06/25 10:33:59;;;;;;;;;0.33;0.00;;;;;23.18;45.25;100673.56;5018780;28;45842;-75
2022/06/25 10:36:45;;;;;;;;;1.33;1.33;;;;;23.35;45.48;100696.31;5018140;28;45869;-70
2022/06/25 10:39:40;;;;;;;;;6.00;4.00;;;;;23.44;46.04;100693.28;5023226;28;46269;-73
2022/06/25 10:45:04;;;;;;;;;5.00;4.00;;;;;23.45;45.72;100693.06;5036813;28;45522;-72
2022/06/25 10:47:41;;;;;;;;;2.00;2.00;;;;;23.31;44.97;100667.16;5053013;28;45313;-73
2022/06/25 10:50:22;;;;;;;;;3.00;3.00;;;;;23.50;44.79;100692.38;5036011;28;46247;-71
2022/06/25 10:53:09;;;;;;;;;2.00;2.00;;;;;23.46;45.28;100692.00;5044854;28;45595;-76
2022/06/25 10:55:37;;;;;;;;;2.00;2.00;;;;;23.47;44.77;100690.13;5050034;28;45573;-73
2022/06/25 10:58:12;;;;;;;;;4.67;3.33;;;;;23.54;45.15;100696.25;5018344;28;45368;-72
2022/06/25 11:00:52;;;;;;;;;1.67;1.67;;;;;23.50;44.79;100681.50;5017030;28;46704;-75
2022/06/25 11:03:38;;;;;;;;;1.00;1.00;;;;;23.62;44.63;100696.78;5042301;28;45546;-74
2022/06/25 11:06:29;;;;;;;;;1.00;1.00;;;;;23.62;44.53;100695.97;5017395;28;45278;-75
2022/06/25 11:09:07;;;;;;;;;2.00;2.00;;;;;22.30;44.68;100464.53;5015525;28;45452;-74
2022/06/25 11:11:34;;;;;;;;;2.00;2.00;;;;;23.78;44.62;100699.91;5029276;28;46258;-71
2022/06/25 11:14:01;;;;;;;;;3.00;3.00;;;;;23.57;44.62;100661.38;5015005;28;45432;-72
2022/06/25 11:16:27;;;;;;;;;3.00;3.00;;;;;23.49;45.28;100631.84;4996750;28;45340;-73
2022/06/25 11:18:54;;;;;;;;;3.00;2.00;;;;;23.70;44.53;100659.53;5033167;28;45277;-74
2022/06/25 11:21:37;;;;;;;;;3.00;3.00;;;;;23.84;45.54;100713.41;5036379;28;45602;-72
2022/06/25 11:24:19;;;;;;;;;3.00;3.00;;;;;23.72;45.04;100698.97;5055491;27;46042;-71
2022/06/25 11:29:38;;;;;;;;;3.67;3.33;;;;;23.47;45.86;100711.81;5020511;28;45189;-71
2022/06/25 11:32:04;;;;;;;;;4.00;4.00;;;;;22.65;46.67;100579.34;5025321;28;46715;-73
2022/06/25 11:34:31;;;;;;;;;12.67;12.67;;;;;23.45;46.39;100705.78;5055361;28;45316;-72
2022/06/25 11:37:10;;;;;;;;;7.67;6.00;;;;;23.50;47.11;100708.66;5038704;28;45546;-71